WetterOnline ( http://www.wetteronline.de )

Wetter aktuell Blaustein

Aktuelles Wetter: Ulm-Mähringen (592m)

6-stündlich | Neueste Meldungen
Ortszeit Temperatur Wetter
Mi, 25.04. 20:00 15.3° C fast wolkenlos
Mi, 25.04. 14:00 20.7° C leicht bewölkt
Mi, 25.04. 8:00 11.9° C leicht bewölkt
Mi, 25.04. 2:00 7.7° C wolkig
Di, 24.04. 20:00 16.9° C wolkig
Di, 24.04. 14:00 18.8° C bewölkt
Di, 24.04. 8:00 10.1° C bewölkt
Di, 24.04. 2:00 11.0° C wolkig
Ortszeit Temperatur Wetter
Mi, 25.04. 23:30 10.2° C wolkig
Mi, 25.04. 23:20 10.2° C wolkig
Mi, 25.04. 23:10 10.5° C wolkig
Mi, 25.04. 23:00 11.3° C wolkig
Mi, 25.04. 22:50 11.3° C wolkig
Mi, 25.04. 22:40 11.3° C wolkig
Mi, 25.04. 22:30 11.2° C fast wolkenlos
Mi, 25.04. 22:00 11.2° C wolkig
Mi, 25.04. 21:30 12.2° C leicht bewölkt
Mi, 25.04. 21:00 14.1° C bewölkt
Mi, 25.04. 20:30 14.8° C wolkig
Ortszeit Relative Feuchte Sichtweite
Mi, 25.04. 20:00 61% 65 km
Mi, 25.04. 14:00 36% 40 km
Mi, 25.04. 8:00 78% 35 km
Mi, 25.04. 2:00 93% 28 km
Di, 24.04. 20:00 58% 60 km
Di, 24.04. 14:00 50% 35 km
Di, 24.04. 8:00 97% 4.6 km
Di, 24.04. 2:00 93% 30 km
Ortszeit Relative Feuchte Sichtweite
Mi, 25.04. 23:30 86% 40 km
Mi, 25.04. 23:20 86% -
Mi, 25.04. 23:10 85% -
Mi, 25.04. 23:00 83% 40 km
Mi, 25.04. 22:50 83% -
Mi, 25.04. 22:40 82% -
Mi, 25.04. 22:30 83% 40 km
Mi, 25.04. 22:00 81% 45 km
Mi, 25.04. 21:30 74% 60 km
Mi, 25.04. 21:00 65% 60 km
Mi, 25.04. 20:30 62% -
Ortszeit Niederschlagsmenge Niederschlagsart
Mi, 25.04. 20:00 0.0 l/m2 in 12 Std. -
Mi, 25.04. 14:00 0.0 l/m2 in 6 Std. -
Mi, 25.04. 8:00 0.0 l/m2 in 12 Std. -
Mi, 25.04. 2:00 0.0 l/m2 in 6 Std. -
Di, 24.04. 20:00 0.0 l/m2 in 12 Std. -
Di, 24.04. 14:00 0.0 l/m2 in 6 Std. -
Di, 24.04. 8:00 0.1 l/m2 in 12 Std. -
Di, 24.04. 2:00 0.1 l/m2 in 6 Std. Regen
Ortszeit Niederschlagsmenge Niederschlagsart
Mi, 25.04. 23:30 0.0 l/m2 in 1 Std. -
Mi, 25.04. 23:20 keine Meldung -
Mi, 25.04. 23:10 keine Meldung -
Mi, 25.04. 23:00 0.0 l/m2 in 1 Std. -
Mi, 25.04. 22:50 keine Meldung -
Mi, 25.04. 22:40 keine Meldung -
Mi, 25.04. 22:30 0.0 l/m2 in 1 Std. -
Mi, 25.04. 22:00 0.0 l/m2 in 1 Std. -
Mi, 25.04. 21:30 0.0 l/m2 in 1 Std. -
Mi, 25.04. 21:00 0.0 l/m2 in 1 Std. -
Mi, 25.04. 20:30 0.0 l/m2 in 1 Std. -
Ortszeit Stärke Spitze Richtung
km/h Bft. km/h Grad Sektor
Mi, 25.04. 20:00 13 3 59 310° NW
Mi, 25.04. 14:00 25 4 54 260° W
Mi, 25.04. 8:00 6 1 19 230° SW
Mi, 25.04. 2:00 4 1 11 270° W
Di, 24.04. 20:00 4 1 36 310° NW
Di, 24.04. 14:00 15 3 31 240° SW
Di, 24.04. 8:00 9 2 19 210° SW
Di, 24.04. 2:00 7 2 32 220° SW
Ortszeit Stärke Spitze Richtung
km/h Bft. km/h Grad Sektor
Mi, 25.04. 23:30 4 1 7 260° W
Mi, 25.04. 23:20 4 1 - 260° W
Mi, 25.04. 23:10 4 1 - 220° SW
Mi, 25.04. 23:00 4 1 11 200° S
Mi, 25.04. 22:50 4 1 - 200° S
Mi, 25.04. 22:40 4 1 - 270° W
Mi, 25.04. 22:30 2 1 11 290° W
Mi, 25.04. 22:00 7 2 14 320° NW
Mi, 25.04. 21:30 7 2 14 320° NW
Mi, 25.04. 21:00 6 1 15 290° W
Mi, 25.04. 20:30 6 1 15 280° W
Ortszeit Untergrenze Bedeckung Gattung
total tief tief mittel hoch
Mi, 25.04. 20:00 2400 m 1/8 1/8 - - -
Mi, 25.04. 14:00 1800 m 2/8 2/8 - - -
Mi, 25.04. 8:00 10500 m 6/8 0/8 - - -
Mi, 25.04. 2:00 8400 m 8/8 0/8 - - -
Di, 24.04. 20:00 9000 m 7/8 0/8 - - -
Di, 24.04. 14:00 1470 m 7/8 6/8 - - -
Di, 24.04. 8:00 30 m 8/8 4/8 - - -
Di, 24.04. 2:00 660 m 7/8 4/8 - - -
Ortszeit Bedeckungsgrad in Achtel und Wolkenuntergrenze
Mi, 25.04. 23:30 3(750m) 5(1500m) 6(2400m)
Mi, 25.04. 23:20 3(750m) 5(1500m) 6(2400m)
Mi, 25.04. 23:10 2(780m) 5(1500m) 5(2400m)
Mi, 25.04. 23:00 6(1200m) 7(1800m) 7(2400m)
Mi, 25.04. 22:50 6(1200m)
Mi, 25.04. 22:40 5(1110m)
Mi, 25.04. 22:30 1(2700m) 2(2700m)
Mi, 25.04. 22:00 5(2400m)
Mi, 25.04. 21:30 2(2400m)
Mi, 25.04. 21:00 7(2700m)
Mi, 25.04. 20:30 5(2700m)
Ortszeit Luftdruck NN (hPa) Tendenz (hPa in 3 Std.)
Mi, 25.04. 20:00 1012 + 0,3
Mi, 25.04. 14:00 1011 - 0,8
Mi, 25.04. 8:00 1014 - 0,1
Mi, 25.04. 2:00 1016 - 1,0
Di, 24.04. 20:00 1015 - 1,0
Di, 24.04. 14:00 1017 - 1,2
Di, 24.04. 8:00 1021 + 0,2
Di, 24.04. 2:00 1020 + 0,4
Ortszeit Luftdruck NN (hPa) Tendenz (hPa in 3 Std.)
Mi, 25.04. 23:30 1016 + 1,9
Mi, 25.04. 23:20 1016 keine Meldung
Mi, 25.04. 23:10 1016 keine Meldung
Mi, 25.04. 23:00 1015 + 1,9
Mi, 25.04. 22:50 1015 keine Meldung
Mi, 25.04. 22:40 1015 keine Meldung
Mi, 25.04. 22:30 1015 + 1,7
Mi, 25.04. 22:00 1015 + 1,3
Mi, 25.04. 21:30 1014 + 1,0
Mi, 25.04. 21:00 1013 + 0,7
Mi, 25.04. 20:30 1013 + 0,4
Ortszeit Schneehöhe (cm)
Mi, 25.04. 20:00 0
Mi, 25.04. 14:00 0
Mi, 25.04. 8:00 0
Mi, 25.04. 2:00 0
Di, 24.04. 20:00 0
Di, 24.04. 14:00 0
Di, 24.04. 8:00 0
Di, 24.04. 2:00 0
Ortszeit Schneehöhe (cm)
Mi, 25.04. 23:30 0
Mi, 25.04. 23:20 0
Mi, 25.04. 23:10 0
Mi, 25.04. 23:00 0
Mi, 25.04. 22:50 0
Mi, 25.04. 22:40 0
Mi, 25.04. 22:30 0
Mi, 25.04. 22:00 0
Mi, 25.04. 21:30 0
Mi, 25.04. 21:00 0
Mi, 25.04. 20:30 0
Link zu dieser Seite / Seite empfehlen

Das Wetter in ...